createdAt,value
2019-03-24T00:01:43.702Z,66.23
2019-03-24T00:04:13.616Z,66.09
2019-03-24T00:06:43.504Z,66.11
2019-03-24T00:09:13.406Z,65.98
2019-03-24T00:11:43.333Z,65.82
2019-03-24T00:14:13.237Z,65.66
2019-03-24T00:16:43.157Z,65.83
2019-03-24T00:19:13.086Z,65.83
2019-03-24T00:21:43.458Z,65.95
2019-03-24T00:24:13.353Z,66.06
2019-03-24T00:26:43.339Z,66.04
2019-03-24T00:29:13.322Z,65.89
2019-03-24T00:31:43.194Z,65.70
2019-03-24T00:34:13.107Z,65.78
2019-03-24T00:36:43.059Z,65.78
2019-03-24T00:39:13.018Z,65.82
2019-03-24T00:41:42.930Z,65.78
2019-03-24T00:44:12.785Z,65.76
2019-03-24T00:46:42.825Z,65.92
2019-03-24T00:49:12.752Z,66.02
2019-03-24T00:51:42.646Z,66.00
2019-03-24T00:54:12.552Z,66.26
2019-03-24T00:56:42.469Z,66.26
2019-03-24T00:59:12.339Z,66.03
2019-03-24T01:01:42.224Z,66.06
2019-03-24T01:04:12.137Z,65.80
2019-03-24T01:06:42.001Z,65.80
2019-03-24T01:09:11.913Z,66.03
2019-03-24T01:11:41.999Z,66.22
2019-03-24T01:14:11.904Z,66.28
2019-03-24T01:16:41.850Z,66.43
2019-03-24T01:19:11.739Z,65.76
2019-03-24T01:21:41.636Z,65.76
2019-03-24T01:24:11.496Z,66.07
2019-03-24T01:26:41.396Z,66.19
2019-03-24T01:29:11.291Z,66.46
2019-03-24T01:31:41.206Z,66.38
2019-03-24T01:34:11.227Z,66.31
2019-03-24T01:36:41.100Z,66.39
2019-03-24T01:39:11.006Z,66.29
2019-03-24T01:41:40.897Z,66.21
2019-03-24T01:44:10.822Z,66.21
2019-03-24T01:46:40.705Z,66.29
2019-03-24T01:49:10.639Z,66.23
2019-03-24T01:51:40.691Z,66.26
2019-03-24T01:54:10.578Z,66.40
2019-03-24T01:56:40.479Z,66.26
2019-03-24T01:59:10.372Z,66.25
2019-03-24T02:01:40.252Z,66.12
2019-03-24T02:04:10.160Z,66.13
2019-03-24T02:06:40.084Z,66.17
2019-03-24T02:09:10.742Z,65.92
2019-03-24T02:11:40.624Z,65.92
2019-03-24T02:14:10.509Z,65.81
2019-03-24T02:16:40.412Z,65.98
2019-03-24T02:19:10.308Z,65.96
2019-03-24T02:21:40.195Z,66.35
2019-03-24T02:24:10.209Z,66.06
2019-03-24T02:26:40.099Z,65.99
2019-03-24T02:29:09.997Z,65.99
2019-03-24T02:31:39.903Z,65.96
2019-03-24T02:34:09.873Z,65.75
2019-03-24T02:36:39.738Z,65.66
2019-03-24T02:39:09.675Z,65.65
2019-03-24T02:41:39.657Z,65.51
2019-03-24T02:44:09.562Z,65.57
2019-03-24T02:46:39.473Z,65.51
2019-03-24T02:49:09.389Z,65.42
2019-03-24T02:51:39.305Z,65.39
2019-03-24T02:54:09.216Z,65.51
2019-03-24T02:56:39.111Z,65.42
2019-03-24T02:59:09.221Z,65.45
2019-03-24T03:01:39.145Z,65.31
2019-03-24T03:04:09.034Z,64.82
2019-03-24T03:06:38.895Z,64.74
2019-03-24T03:09:08.935Z,64.78
2019-03-24T03:11:38.915Z,64.93
2019-03-24T03:14:08.885Z,64.94
2019-03-24T03:16:39.443Z,65.23
2019-03-24T03:19:09.514Z,65.69
2019-03-24T03:21:39.522Z,65.75
2019-03-24T03:24:09.412Z,66.02
2019-03-24T03:26:39.308Z,66.32
2019-03-24T03:29:09.281Z,66.68
2019-03-24T03:31:39.274Z,67.19
2019-03-24T03:34:09.211Z,67.42
2019-03-24T03:36:39.108Z,67.67
2019-03-24T03:39:09.142Z,67.71
2019-03-24T03:41:39.728Z,67.95
2019-03-24T03:44:09.807Z,68.06
2019-03-24T03:46:51.898Z,68.00
2019-03-24T03:49:11.384Z,68.50
2019-03-24T03:51:41.261Z,68.87
2019-03-24T03:54:11.310Z,69.01
2019-03-24T03:56:41.170Z,69.04
2019-03-24T03:59:11.075Z,69.12
2019-03-24T04:01:41.327Z,68.71
2019-03-24T04:04:11.187Z,68.81
2019-03-24T04:06:41.080Z,68.74
2019-03-24T04:09:11.052Z,68.72
2019-03-24T04:11:40.933Z,68.74
2019-03-24T04:14:10.879Z,68.94
2019-03-24T04:16:40.795Z,68.42
2019-03-24T04:19:10.762Z,68.39
2019-03-24T04:21:40.675Z,68.44
2019-03-24T04:24:10.580Z,68.64
2019-03-24T04:26:40.470Z,68.76
2019-03-24T04:29:10.389Z,68.47
2019-03-24T04:31:40.361Z,68.66
2019-03-24T04:34:10.315Z,68.55
2019-03-24T04:36:40.216Z,68.17
2019-03-24T04:39:10.090Z,67.79
2019-03-24T04:41:39.991Z,67.21
2019-03-24T04:44:09.966Z,66.74
2019-03-24T04:46:39.881Z,66.14
2019-03-24T04:49:09.790Z,65.53
2019-03-24T04:51:39.731Z,64.54
2019-03-24T04:54:09.663Z,64.18
2019-03-24T04:56:39.577Z,63.67
2019-03-24T04:59:09.469Z,63.11
2019-03-24T05:01:39.353Z,62.41
2019-03-24T05:04:09.230Z,61.41
2019-03-24T05:06:39.614Z,60.59
2019-03-24T05:09:09.490Z,59.86
2019-03-24T05:11:39.553Z,59.48
2019-03-24T05:14:09.555Z,59.33
2019-03-24T05:16:39.465Z,58.52
2019-03-24T05:19:09.369Z,57.94
2019-03-24T05:21:39.282Z,57.52
2019-03-24T05:24:09.199Z,57.05
2019-03-24T05:26:39.141Z,56.60
2019-03-24T05:29:09.063Z,55.41
2019-03-24T05:31:38.951Z,54.83
2019-03-24T05:34:08.868Z,54.53
2019-03-24T05:36:38.746Z,54.13
2019-03-24T05:39:08.894Z,53.85
2019-03-24T05:41:38.844Z,54.09
2019-03-24T05:44:08.747Z,53.15
2019-03-24T05:46:38.612Z,52.46
2019-03-24T05:49:08.636Z,51.68
2019-03-24T05:51:38.515Z,51.83
2019-03-24T05:54:08.390Z,51.90
2019-03-24T05:56:38.300Z,51.10
2019-03-24T05:59:08.175Z,50.86
2019-03-24T06:01:38.096Z,50.22
2019-03-24T06:04:07.983Z,49.88
2019-03-24T06:06:37.907Z,49.74
2019-03-24T06:09:08.250Z,49.31
2019-03-24T06:11:38.177Z,48.59
2019-03-24T06:14:08.216Z,47.99
2019-03-24T06:16:38.127Z,47.64
2019-03-24T06:19:08.076Z,47.83
2019-03-24T06:21:37.992Z,47.99
2019-03-24T06:24:07.895Z,47.51
2019-03-24T06:26:37.882Z,46.87
2019-03-24T06:29:07.791Z,46.54
2019-03-24T06:31:37.707Z,46.09
2019-03-24T06:34:07.737Z,46.23
2019-03-24T06:36:37.685Z,46.34
2019-03-24T06:39:08.486Z,46.49
2019-03-24T06:41:38.404Z,46.35
2019-03-24T06:44:08.296Z,45.51
2019-03-24T06:46:38.199Z,46.58
2019-03-24T06:49:08.101Z,45.51
2019-03-24T06:51:38.061Z,45.33
2019-03-24T06:54:08.031Z,44.30
2019-03-24T06:56:37.923Z,44.39
2019-03-24T06:59:07.901Z,43.96
2019-03-24T07:01:40.619Z,44.38
2019-03-24T07:04:10.693Z,44.25
2019-03-24T07:06:40.635Z,44.21
2019-03-24T07:09:10.606Z,45.69
2019-03-24T07:11:40.612Z,46.14
2019-03-24T07:14:10.529Z,44.66
2019-03-24T07:16:40.455Z,45.05
2019-03-24T07:19:10.433Z,43.85
2019-03-24T07:21:40.379Z,42.83
2019-03-24T07:24:10.263Z,42.83
2019-03-24T07:26:40.142Z,43.58
2019-03-24T07:29:10.080Z,43.30
2019-03-24T07:31:40.000Z,42.40
2019-03-24T07:34:09.893Z,43.21
2019-03-24T07:36:39.814Z,43.32
2019-03-24T07:39:09.735Z,44.08
2019-03-24T07:41:39.640Z,41.14
2019-03-24T07:44:09.524Z,40.67
2019-03-24T07:46:39.435Z,41.19
2019-03-24T07:49:09.335Z,42.14
2019-03-24T07:51:39.231Z,43.11
2019-03-24T07:54:09.144Z,42.08
2019-03-24T07:56:39.521Z,42.16
2019-03-24T07:59:09.443Z,40.26
2019-03-24T08:01:39.479Z,40.53
2019-03-24T08:04:09.478Z,39.89
2019-03-24T08:06:39.392Z,39.72
2019-03-24T08:09:09.316Z,38.90
2019-03-24T08:11:39.231Z,39.67
2019-03-24T08:14:09.151Z,40.86
2019-03-24T08:16:39.100Z,39.70
2019-03-24T08:19:09.045Z,40.17
2019-03-24T08:21:39.046Z,38.46
2019-03-24T08:24:08.958Z,39.34
2019-03-24T08:26:38.861Z,38.54
2019-03-24T08:29:08.924Z,39.01
2019-03-24T08:31:38.822Z,37.81
2019-03-24T08:34:08.705Z,36.18
2019-03-24T08:36:38.668Z,37.23
2019-03-24T08:39:08.677Z,37.64
2019-03-24T08:41:38.835Z,37.61
2019-03-24T08:44:08.763Z,35.83
2019-03-24T08:46:38.666Z,35.84
2019-03-24T08:49:08.725Z,36.09
2019-03-24T08:51:38.652Z,35.13
2019-03-24T08:54:08.565Z,35.06
2019-03-24T08:56:38.480Z,35.01
2019-03-24T08:59:08.410Z,35.02
2019-03-24T09:01:38.336Z,34.17
2019-03-24T09:04:09.988Z,33.83
2019-03-24T09:06:39.919Z,33.86
2019-03-24T09:09:09.843Z,32.82
2019-03-24T09:11:39.751Z,34.13
2019-03-24T09:14:09.692Z,34.68
2019-03-24T09:16:39.624Z,34.01
2019-03-24T09:19:09.646Z,34.12
2019-03-24T09:21:39.542Z,32.84
2019-03-24T09:24:09.420Z,32.55
2019-03-24T09:26:39.331Z,32.20
2019-03-24T09:29:09.287Z,30.85
2019-03-24T09:31:39.172Z,30.38
2019-03-24T09:34:09.083Z,30.14
2019-03-24T09:36:38.993Z,30.31
2019-03-24T09:39:09.055Z,30.16
2019-03-24T09:41:39.072Z,30.69
2019-03-24T09:44:09.000Z,30.39
2019-03-24T09:46:39.976Z,30.92
2019-03-24T09:49:09.876Z,31.56
2019-03-24T09:51:39.792Z,31.58
2019-03-24T09:54:09.806Z,30.72
2019-03-24T09:56:39.751Z,29.19
2019-03-24T09:59:09.833Z,30.06
2019-03-24T10:01:39.726Z,30.90
2019-03-24T10:04:09.624Z,30.50
2019-03-24T10:06:39.792Z,29.14
2019-03-24T10:09:09.760Z,28.17
2019-03-24T10:11:39.637Z,28.15
2019-03-24T10:14:09.595Z,30.34
2019-03-24T10:16:40.038Z,30.24
2019-03-24T10:19:14.227Z,29.32
2019-03-24T10:21:41.777Z,28.34
2019-03-24T10:24:11.687Z,28.95
2019-03-24T10:26:41.643Z,29.34
2019-03-24T10:29:11.548Z,29.42
2019-03-24T10:31:42.700Z,28.51
2019-03-24T10:34:13.200Z,28.67
2019-03-24T10:36:43.109Z,28.21
2019-03-24T10:39:13.989Z,28.16
2019-03-24T10:41:45.114Z,28.02
2019-03-24T10:44:15.046Z,27.33
2019-03-24T10:46:44.985Z,27.40
2019-03-24T10:49:24.430Z,27.38
2019-03-24T10:51:47.503Z,27.42
2019-03-24T10:54:17.469Z,27.37
2019-03-24T10:56:47.447Z,27.55
2019-03-24T10:59:17.415Z,27.28
2019-03-24T11:01:47.377Z,26.68
2019-03-24T11:04:17.445Z,26.82
2019-03-24T11:06:47.429Z,26.69
2019-03-24T11:09:17.496Z,26.34
2019-03-24T11:11:47.500Z,26.70
2019-03-24T11:14:17.391Z,25.90
2019-03-24T11:16:47.776Z,26.82
2019-03-24T11:19:17.758Z,26.77
2019-03-24T11:21:48.985Z,26.51
2019-03-24T11:24:18.908Z,26.11
2019-03-24T11:26:48.828Z,26.06
2019-03-24T11:29:20.159Z,25.78
2019-03-24T11:31:52.585Z,25.43
2019-03-24T11:34:23.439Z,25.34
2019-03-24T11:36:54.168Z,25.80
2019-03-24T11:39:24.064Z,25.66
2019-03-24T11:41:54.071Z,26.72
2019-03-24T11:44:24.016Z,24.52
2019-03-24T11:46:54.539Z,24.50
2019-03-24T11:49:24.429Z,24.68
2019-03-24T11:51:54.777Z,24.83
2019-03-24T11:54:25.185Z,24.56
2019-03-24T11:56:55.377Z,24.71
2019-03-24T11:59:25.730Z,23.72
2019-03-24T12:01:56.780Z,23.54
2019-03-24T12:04:26.693Z,24.25
2019-03-24T12:06:56.679Z,24.02
2019-03-24T12:09:27.065Z,23.77
2019-03-24T12:11:57.085Z,23.53
2019-03-24T12:14:27.005Z,23.52
2019-03-24T12:16:56.901Z,23.50
2019-03-24T12:19:29.291Z,23.68
2019-03-24T12:21:59.671Z,23.84
2019-03-24T12:24:29.971Z,24.08
2019-03-24T12:27:00.245Z,24.26
2019-03-24T12:29:30.156Z,26.08
2019-03-24T12:32:00.334Z,26.03
2019-03-24T12:34:30.278Z,26.11
2019-03-24T12:37:00.276Z,25.59
2019-03-24T12:39:30.194Z,25.82
2019-03-24T12:42:00.387Z,24.90
2019-03-24T12:44:31.416Z,25.30
2019-03-24T12:47:01.448Z,25.32
2019-03-24T12:49:31.418Z,25.30
2019-03-24T12:52:01.340Z,25.64
2019-03-24T12:54:31.852Z,25.48
2019-03-24T12:57:02.283Z,25.12
2019-03-24T12:59:32.200Z,24.55
2019-03-24T13:02:02.146Z,25.15
2019-03-24T13:04:32.050Z,25.93
2019-03-24T13:07:01.994Z,25.79
2019-03-24T13:09:33.661Z,25.80
2019-03-24T13:12:04.634Z,26.06
2019-03-24T13:14:34.598Z,27.09
2019-03-24T13:17:04.529Z,27.20
2019-03-24T13:19:36.135Z,28.07
2019-03-24T13:22:06.209Z,28.12
2019-03-24T13:24:36.706Z,28.08
2019-03-24T13:27:06.618Z,28.12
2019-03-24T13:29:36.633Z,27.78
2019-03-24T13:32:06.549Z,28.00
2019-03-24T13:34:36.464Z,28.73
2019-03-24T13:37:06.410Z,29.02
2019-03-24T13:39:36.272Z,29.54
2019-03-24T13:42:06.229Z,29.48
2019-03-24T13:44:36.147Z,29.46
2019-03-24T13:47:06.044Z,29.35
2019-03-24T13:49:35.982Z,29.29
2019-03-24T13:52:05.881Z,29.14
2019-03-24T13:54:35.755Z,29.23
2019-03-24T13:57:05.637Z,29.58
2019-03-24T13:59:35.571Z,29.46
2019-03-24T14:02:05.816Z,29.26
2019-03-24T14:04:36.039Z,29.36
2019-03-24T14:07:06.050Z,28.98
2019-03-24T14:09:35.968Z,29.18
2019-03-24T14:12:05.994Z,28.86
2019-03-24T14:14:35.951Z,29.59
2019-03-24T14:17:05.855Z,29.59
2019-03-24T14:19:35.748Z,29.75
2019-03-24T14:22:05.984Z,29.53
2019-03-24T14:24:35.898Z,29.50
2019-03-24T14:27:05.824Z,29.51
2019-03-24T14:29:35.721Z,29.35
2019-03-24T14:32:05.694Z,29.35
2019-03-24T14:34:35.625Z,29.06
2019-03-24T14:37:05.676Z,29.32
2019-03-24T14:39:35.549Z,29.96
2019-03-24T14:42:05.580Z,29.17
2019-03-24T14:44:35.780Z,29.12
2019-03-24T14:47:05.818Z,29.37
2019-03-24T14:49:35.712Z,29.59
2019-03-24T14:52:05.633Z,29.61
2019-03-24T14:54:35.536Z,29.43
2019-03-24T14:57:05.567Z,29.75
2019-03-24T14:59:35.475Z,29.81
2019-03-24T15:02:06.401Z,29.80
2019-03-24T15:04:36.331Z,29.79
2019-03-24T15:07:06.223Z,30.00
2019-03-24T15:09:36.145Z,30.24
2019-03-24T15:12:06.415Z,29.78
2019-03-24T15:14:36.338Z,29.68
2019-03-24T15:17:06.437Z,29.54
2019-03-24T15:19:36.354Z,29.66
2019-03-24T15:22:06.278Z,29.27
2019-03-24T15:24:36.198Z,29.33
2019-03-24T15:27:06.125Z,29.58
2019-03-24T15:29:36.043Z,29.33
2019-03-24T15:32:05.972Z,29.09
2019-03-24T15:34:35.853Z,29.44
2019-03-24T15:37:05.915Z,29.44
2019-03-24T15:39:35.803Z,29.15
2019-03-24T15:42:05.783Z,29.16
2019-03-24T15:44:35.761Z,29.77
2019-03-24T15:47:05.805Z,29.11
2019-03-24T15:49:35.706Z,29.72
2019-03-24T15:52:05.692Z,29.52
2019-03-24T15:54:35.599Z,28.88
2019-03-24T15:57:05.461Z,29.04
2019-03-24T15:59:35.388Z,29.28
2019-03-24T16:02:05.311Z,28.79
2019-03-24T16:04:35.261Z,29.60
2019-03-24T16:07:05.238Z,30.00
2019-03-24T16:09:35.136Z,30.24
2019-03-24T16:12:05.039Z,30.33
2019-03-24T16:14:34.962Z,30.41
2019-03-24T16:17:04.995Z,30.46
2019-03-24T16:19:34.930Z,29.57
2019-03-24T16:22:04.888Z,29.09
2019-03-24T16:24:35.168Z,28.31
2019-03-24T16:27:05.047Z,28.08
2019-03-24T16:29:34.981Z,28.32
2019-03-24T16:32:04.963Z,28.33
2019-03-24T16:34:34.855Z,28.67
2019-03-24T16:37:04.744Z,28.58
2019-03-24T16:39:34.648Z,28.86
2019-03-24T16:42:04.535Z,29.28
2019-03-24T16:44:34.449Z,29.52
2019-03-24T16:47:04.368Z,29.86
2019-03-24T16:49:34.257Z,30.04
2019-03-24T16:52:04.211Z,30.24
2019-03-24T16:54:34.279Z,30.43
2019-03-24T16:57:04.517Z,30.48
2019-03-24T16:59:34.202Z,30.65
2019-03-24T17:02:04.110Z,30.70
2019-03-24T17:04:34.017Z,30.54
2019-03-24T17:07:04.054Z,30.59
2019-03-24T17:09:34.005Z,30.75
2019-03-24T17:12:03.928Z,31.05
2019-03-24T17:14:34.006Z,31.26
2019-03-24T17:17:03.942Z,31.52
2019-03-24T17:19:33.850Z,31.70
2019-03-24T17:22:03.783Z,31.90
2019-03-24T17:24:33.667Z,31.67
2019-03-24T17:27:03.568Z,31.97
2019-03-24T17:29:33.532Z,32.02
2019-03-24T17:32:03.480Z,32.16
2019-03-24T17:34:33.438Z,32.23
2019-03-24T17:37:03.481Z,32.46
2019-03-24T17:39:33.410Z,32.55
2019-03-24T17:42:03.407Z,32.76
2019-03-24T17:44:33.336Z,33.37
2019-03-24T17:47:03.370Z,33.11
2019-03-24T17:49:33.271Z,33.31
2019-03-24T17:52:03.272Z,33.37
2019-03-24T17:54:33.150Z,33.48
2019-03-24T17:57:03.140Z,33.51
2019-03-24T17:59:33.044Z,33.47
2019-03-24T18:02:10.055Z,33.46
2019-03-24T18:04:34.584Z,33.51
2019-03-24T18:07:04.535Z,33.28
2019-03-24T18:09:34.516Z,33.33
2019-03-24T18:12:04.446Z,33.53
2019-03-24T18:14:34.347Z,33.53
2019-03-24T18:17:06.151Z,33.63
2019-03-24T18:19:36.067Z,33.66
2019-03-24T18:22:11.586Z,33.75
2019-03-24T18:24:37.963Z,33.83
2019-03-24T18:27:07.855Z,33.90
2019-03-24T18:29:37.814Z,33.79
2019-03-24T18:32:07.836Z,33.85
2019-03-24T18:34:38.273Z,34.00
2019-03-24T18:37:08.302Z,33.90
2019-03-24T18:39:38.204Z,34.02
2019-03-24T18:42:10.394Z,34.07
2019-03-24T18:44:40.347Z,34.13
2019-03-24T18:47:10.310Z,34.31
2019-03-24T18:49:40.017Z,34.42
2019-03-24T18:52:22.348Z,34.45
2019-03-24T18:54:47.023Z,34.54
2019-03-24T18:57:18.092Z,34.67
2019-03-24T18:59:48.925Z,34.76
2019-03-24T19:02:18.829Z,35.00
2019-03-24T19:04:48.731Z,35.00
2019-03-24T19:07:18.635Z,35.32
2019-03-24T19:09:48.608Z,35.54
2019-03-24T19:12:18.484Z,35.81
2019-03-24T19:14:48.505Z,36.00
2019-03-24T19:17:18.454Z,36.10
2019-03-24T19:19:48.395Z,36.51
2019-03-24T19:22:18.363Z,36.64
2019-03-24T19:24:48.295Z,36.97
2019-03-24T19:27:18.205Z,37.00
2019-03-24T19:29:48.181Z,37.44
2019-03-24T19:32:18.149Z,37.82
2019-03-24T19:34:48.107Z,38.06
2019-03-24T19:37:18.472Z,38.33
2019-03-24T19:39:50.086Z,38.59
2019-03-24T19:42:20.058Z,38.79
2019-03-24T19:44:50.039Z,39.21
2019-03-24T19:47:19.968Z,39.18
2019-03-24T19:49:49.915Z,39.77
2019-03-24T19:52:19.861Z,39.99
2019-03-24T19:54:49.786Z,40.65
2019-03-24T19:57:19.676Z,41.07
2019-03-24T19:59:49.614Z,41.37
2019-03-24T20:02:19.599Z,41.91
2019-03-24T20:04:51.262Z,41.94
2019-03-24T20:07:21.187Z,42.47
2019-03-24T20:09:51.252Z,42.98
2019-03-24T20:12:21.447Z,42.92
2019-03-24T20:14:51.510Z,43.64
2019-03-24T20:17:22.646Z,43.38
2019-03-24T20:19:52.652Z,43.64
2019-03-24T20:22:22.684Z,43.54
2019-03-24T20:24:52.795Z,43.90
2019-03-24T20:27:22.738Z,44.54
2019-03-24T20:29:52.729Z,45.01
2019-03-24T20:32:22.658Z,44.46
2019-03-24T20:34:52.551Z,44.66
2019-03-24T20:37:22.614Z,44.77
2019-03-24T20:39:52.682Z,44.31
2019-03-24T20:42:22.598Z,44.14
2019-03-24T20:44:52.501Z,44.94
2019-03-24T20:47:24.432Z,44.88
2019-03-24T20:49:54.431Z,45.14
2019-03-24T20:52:24.485Z,45.00
2019-03-24T20:54:54.394Z,45.56
2019-03-24T20:57:24.337Z,47.95
2019-03-24T20:59:54.844Z,47.62
2019-03-24T21:02:24.749Z,46.15
2019-03-24T21:04:54.645Z,47.49
2019-03-24T21:07:24.519Z,46.50
2019-03-24T21:09:54.526Z,45.08
2019-03-24T21:12:24.449Z,46.48
2019-03-24T21:14:54.389Z,46.67
2019-03-24T21:17:24.318Z,47.19
2019-03-24T21:19:54.234Z,45.45
2019-03-24T21:22:24.196Z,45.07
2019-03-24T21:24:54.115Z,46.82
2019-03-24T21:27:24.053Z,46.42
2019-03-24T21:29:54.170Z,46.51
2019-03-24T21:32:24.080Z,46.53
2019-03-24T21:34:54.072Z,46.85
2019-03-24T21:37:24.103Z,47.28
2019-03-24T21:39:54.079Z,47.45
2019-03-24T21:42:23.996Z,47.36
2019-03-24T21:44:53.987Z,49.84
2019-03-24T21:47:24.131Z,47.67
2019-03-24T21:49:54.081Z,47.62
2019-03-24T21:52:24.006Z,49.67
2019-03-24T21:54:53.942Z,48.99
2019-03-24T21:57:24.318Z,49.38
2019-03-24T21:59:54.198Z,49.91
2019-03-24T22:02:24.534Z,49.76
2019-03-24T22:04:56.006Z,49.36
2019-03-24T22:07:26.047Z,49.02
2019-03-24T22:09:56.110Z,48.95
2019-03-24T22:12:26.087Z,48.96
2019-03-24T22:14:56.172Z,49.30
2019-03-24T22:17:26.111Z,50.80
2019-03-24T22:19:56.068Z,50.00
2019-03-24T22:22:26.023Z,49.92
2019-03-24T22:24:55.908Z,49.70
2019-03-24T22:27:25.861Z,49.46
2019-03-24T22:29:55.823Z,49.81
2019-03-24T22:32:25.754Z,50.05
2019-03-24T22:34:55.675Z,50.07
2019-03-24T22:37:25.632Z,50.44
2019-03-24T22:39:55.608Z,50.94
2019-03-24T22:42:25.505Z,51.05
2019-03-24T22:44:55.458Z,50.86
2019-03-24T22:47:25.395Z,51.51
2019-03-24T22:49:55.383Z,51.72
2019-03-24T22:52:25.355Z,52.41
2019-03-24T22:54:55.209Z,52.11
2019-03-24T22:57:25.108Z,52.20
2019-03-24T22:59:55.066Z,52.48
2019-03-24T23:02:25.004Z,52.23
2019-03-24T23:05:03.946Z,51.48
2019-03-24T23:07:47.917Z,53.30
2019-03-24T23:10:17.916Z,51.99
2019-03-24T23:12:47.934Z,51.41
2019-03-24T23:15:18.022Z,51.69
2019-03-24T23:17:47.937Z,52.25
2019-03-24T23:20:17.834Z,51.72
2019-03-24T23:22:47.751Z,51.42
2019-03-24T23:25:17.647Z,52.64
2019-03-24T23:27:47.583Z,52.64
2019-03-24T23:30:18.332Z,52.36
2019-03-24T23:32:48.378Z,53.50
2019-03-24T23:35:18.414Z,54.38
2019-03-24T23:37:48.271Z,54.59
2019-03-24T23:40:18.290Z,54.48
2019-03-24T23:42:48.199Z,55.58
2019-03-24T23:45:18.106Z,54.45
2019-03-24T23:47:48.039Z,53.84
2019-03-24T23:50:17.944Z,53.29
2019-03-24T23:52:47.976Z,54.18
2019-03-24T23:55:17.890Z,54.18
2019-03-24T23:57:47.784Z,54.82
